Terminal Aerodrome Forecast
Issued by NWS

Home | Current Version | Previous Version | Text Only | Print | Product List | Glossary On
Versions: 1 2 3 4 5 6 7 8 9 10 11 12 13 14
000
FTPQ31 PGUM 242340
TAFGUM
TAF

TAF
PTRO 242340Z 2500/2524 04011KT P6SM VCSH SCT016 BKN040 OVC100
      TEMPO 2500/2504 04018KT 4SM SHRA BKN014 OVC030=

USA.gov is the U.S. government's official web portal to all federal, state and local government web resources and services.